Time;durP1;ratioP1;P1;durP2;ratioP2;P2;SDS_P1;SDS_P2;PMS_P1;PMS_P2;Temp;Humidity;BMP_temperature;BMP_pressure;BME280_temperature;BME280_humidity;BME280_pressure;Samples;Min_cycle;Max_cycle;Signal;HPM_P1;HPM_P2
2023/12/04 00:00:28;;;;;;;41.35;16.27;;;-9.10;99.90;;;;;;5014300;28;20259;-59
2023/12/04 00:02:53;;;;;;;40.80;16.93;;;-9.10;99.90;;;;;;5005113;28;20192;-59
2023/12/04 00:05:19;;;;;;;52.53;19.93;;;-9.20;99.90;;;;;;5007936;28;20177;-59
2023/12/04 00:07:44;;;;;;;34.87;16.60;;;-9.20;99.90;;;;;;5005339;28;20193;-60
2023/12/04 00:10:10;;;;;;;41.90;17.53;;;-9.30;99.90;;;;;;5003894;28;20253;-59
2023/12/04 00:12:36;;;;;;;39.53;17.20;;;-9.30;99.90;;;;;;5007294;28;20538;-58
2023/12/04 00:15:01;;;;;;;40.83;15.73;;;-9.40;99.90;;;;;;5010396;28;20228;-58
2023/12/04 00:17:27;;;;;;;38.43;15.93;;;-9.40;99.90;;;;;;5002592;28;20817;-59
2023/12/04 00:19:53;;;;;;;34.67;15.07;;;-9.30;99.90;;;;;;5005867;28;20188;-59
2023/12/04 00:22:18;;;;;;;43.53;14.90;;;-9.30;99.90;;;;;;5007823;28;20195;-58
2023/12/04 00:24:44;;;;;;;33.37;14.80;;;-9.30;99.90;;;;;;5008933;28;20283;-59
2023/12/04 00:27:10;;;;;;;37.70;14.73;;;-9.30;99.90;;;;;;5006421;28;20194;-59
2023/12/04 00:29:36;;;;;;;36.13;16.50;;;-9.30;99.90;;;;;;5013546;28;20763;-59
2023/12/04 00:32:01;;;;;;;33.00;15.33;;;-9.30;99.90;;;;;;5009648;28;20177;-59
2023/12/04 00:34:27;;;;;;;41.80;15.27;;;-9.30;99.90;;;;;;5005781;28;20200;-59
2023/12/04 00:36:52;;;;;;;34.20;16.07;;;-9.30;99.90;;;;;;5002961;28;20779;-59
2023/12/04 00:39:18;;;;;;;32.67;14.57;;;-9.30;99.90;;;;;;5007742;28;20194;-59
2023/12/04 00:41:43;;;;;;;38.97;14.50;;;-9.30;99.90;;;;;;5007203;28;20629;-59
2023/12/04 00:44:09;;;;;;;34.73;14.03;;;-9.30;99.90;;;;;;5004468;28;20208;-58
2023/12/04 00:46:35;;;;;;;33.67;14.40;;;-9.40;99.90;;;;;;5002078;28;20185;-59
2023/12/04 00:49:00;;;;;;;40.70;14.30;;;-9.40;99.90;;;;;;5010662;28;20208;-59
2023/12/04 00:51:26;;;;;;;36.73;14.60;;;-9.50;99.90;;;;;;5003862;28;20845;-59
2023/12/04 00:53:51;;;;;;;31.60;13.17;;;-9.40;99.90;;;;;;5005093;28;20194;-59
2023/12/04 00:56:19;;;;;;;31.50;12.43;;;-9.40;99.90;;;;;;5015214;28;20189;-58
2023/12/04 00:58:45;;;;;;;27.15;11.07;;;-9.40;99.90;;;;;;5010972;28;20233;-59
2023/12/04 01:01:10;;;;;;;27.60;12.13;;;-9.50;99.90;;;;;;5012247;28;20708;-59
2023/12/04 01:03:37;;;;;;;24.03;11.07;;;-9.50;99.90;;;;;;5009789;28;20316;-59
2023/12/04 01:06:03;;;;;;;28.55;12.70;;;-9.40;99.90;;;;;;5012873;28;20272;-60
2023/12/04 01:08:29;;;;;;;29.97;12.33;;;-9.40;99.90;;;;;;5002338;28;20292;-59
2023/12/04 01:10:54;;;;;;;30.70;11.63;;;-9.40;99.90;;;;;;5010805;28;20549;-60
2023/12/04 01:13:20;;;;;;;25.40;11.30;;;-9.40;99.90;;;;;;5009869;28;20251;-59
2023/12/04 01:15:46;;;;;;;28.87;11.17;;;-9.40;99.90;;;;;;5008982;28;20179;-59
2023/12/04 01:18:12;;;;;;;19.38;10.88;;;-9.30;99.90;;;;;;5010647;28;20264;-59
2023/12/04 01:20:37;;;;;;;25.13;11.00;;;-9.40;99.90;;;;;;5010722;28;20181;-59
2023/12/04 01:23:03;;;;;;;22.27;10.50;;;-9.40;99.90;;;;;;5011131;28;20180;-58
2023/12/04 01:25:28;;;;;;;25.10;10.77;;;-9.40;99.90;;;;;;5003048;28;20177;-59
2023/12/04 01:27:54;;;;;;;25.30;11.40;;;-9.40;99.90;;;;;;5009438;28;20348;-59
2023/12/04 01:30:19;;;;;;;26.97;11.10;;;-9.40;99.90;;;;;;5013364;28;20181;-58
2023/12/04 01:32:45;;;;;;;20.10;10.23;;;-9.50;99.90;;;;;;5010126;28;21863;-58
2023/12/04 01:35:11;;;;;;;23.70;11.70;;;-9.50;99.90;;;;;;5008440;28;20203;-58
2023/12/04 01:37:38;;;;;;;26.90;11.40;;;-9.60;99.90;;;;;;5011878;28;20659;-60
2023/12/04 01:40:06;;;;;;;25.55;12.27;;;-9.60;99.90;;;;;;5015477;28;20580;-60
2023/12/04 01:42:32;;;;;;;23.70;11.82;;;-9.70;99.90;;;;;;5011940;28;20184;-58
2023/12/04 01:44:58;;;;;;;32.83;12.60;;;-9.80;99.90;;;;;;5009506;28;20217;-58
2023/12/04 01:47:24;;;;;;;28.17;12.30;;;-9.80;99.90;;;;;;5010158;28;20465;-59
2023/12/04 01:49:49;;;;;;;25.00;11.10;;;-9.80;99.90;;;;;;5011154;28;20205;-58
2023/12/04 01:52:16;;;;;;;30.80;13.10;;;-9.70;99.90;;;;;;5011996;28;20184;-58
2023/12/04 01:54:42;;;;;;;29.23;12.75;;;-9.70;99.90;;;;;;5008480;28;20193;-59
2023/12/04 01:57:09;;;;;;;35.87;13.53;;;-9.70;99.90;;;;;;5010541;28;20208;-58
2023/12/04 01:59:34;;;;;;;42.92;14.93;;;-9.70;99.90;;;;;;5004289;28;21066;-58
2023/12/04 02:02:02;;;;;;;36.73;13.70;;;-9.70;99.90;;;;;;5010307;28;20299;-58
2023/12/04 02:04:27;;;;;;;33.25;13.15;;;-9.60;99.90;;;;;;5007642;28;20197;-59
2023/12/04 02:06:53;;;;;;;34.43;13.20;;;-9.70;99.90;;;;;;5013290;28;20180;-58
2023/12/04 02:09:19;;;;;;;30.27;12.85;;;-9.70;99.90;;;;;;5008676;28;20232;-58
2023/12/04 02:11:45;;;;;;;25.93;12.10;;;-9.70;99.90;;;;;;5008168;28;20185;-59
2023/12/04 02:14:11;;;;;;;27.47;12.37;;;-9.80;99.90;;;;;;5010459;28;20435;-59
2023/12/04 02:16:41;;;;;;;23.90;10.98;;;-9.80;99.90;;;;;;5006700;28;20220;-58
2023/12/04 02:19:12;;;;;;;27.60;11.73;;;-9.80;99.90;;;;;;5014478;28;20653;-58
2023/12/04 02:21:38;;;;;;;26.77;11.85;;;-9.70;99.90;;;;;;5008685;28;20774;-59
2023/12/04 02:24:04;;;;;;;25.63;10.53;;;-9.70;99.90;;;;;;5013322;28;20299;-58
2023/12/04 02:26:39;;;;;;;31.53;12.37;;;-9.70;99.90;;;;;;5005683;28;20224;-58
2023/12/04 02:29:13;;;;;;;27.27;11.70;;;-9.70;99.90;;;;;;5011730;28;20605;-58
2023/12/04 02:31:41;;;;;;;21.98;9.45;;;-9.70;99.90;;;;;;5010365;28;20284;-59
2023/12/04 02:34:07;;;;;;;27.77;12.00;;;-9.70;99.90;;;;;;5013914;28;20584;-58
2023/12/04 02:36:35;;;;;;;21.52;10.23;;;-9.70;99.90;;;;;;5009096;28;20192;-59
2023/12/04 02:39:00;;;;;;;28.88;12.27;;;-9.70;99.90;;;;;;5003809;28;20173;-59
2023/12/04 02:41:27;;;;;;;33.53;13.10;;;-9.70;99.90;;;;;;5007982;28;20180;-59
2023/12/04 02:43:52;;;;;;;25.60;10.45;;;-9.70;99.90;;;;;;5006804;28;20204;-58
2023/12/04 02:46:18;;;;;;;29.57;12.17;;;-9.60;99.90;;;;;;5004794;28;20196;-59
2023/12/04 02:48:44;;;;;;;22.47;10.27;;;-9.60;99.90;;;;;;5007022;28;20216;-59
2023/12/04 02:51:11;;;;;;;25.27;10.30;;;-9.60;99.90;;;;;;5000745;28;20187;-59
2023/12/04 02:53:36;;;;;;;21.50;9.07;;;-9.60;99.90;;;;;;5007820;28;20428;-58
2023/12/04 02:56:02;;;;;;;20.50;10.00;;;-9.60;99.90;;;;;;5009580;28;20256;-58
2023/12/04 02:58:27;;;;;;;21.23;9.67;;;-9.60;99.90;;;;;;5005991;28;20172;-58
2023/12/04 03:00:53;;;;;;;26.63;9.73;;;-9.60;99.90;;;;;;5007599;28;20283;-60
2023/12/04 03:03:19;;;;;;;28.13;11.00;;;-9.60;99.90;;;;;;5014475;28;20799;-58
2023/12/04 03:05:44;;;;;;;26.27;11.10;;;-9.50;99.90;;;;;;5008108;28;20177;-59
2023/12/04 03:08:10;;;;;;;31.03;11.33;;;-9.50;99.90;;;;;;5008557;28;20289;-59
2023/12/04 03:10:35;;;;;;;25.27;11.57;;;-9.40;99.90;;;;;;5004897;28;20641;-58
2023/12/04 03:13:01;;;;;;;27.67;12.67;;;-9.40;99.90;;;;;;5006597;28;20210;-59
2023/12/04 03:15:28;;;;;;;34.33;14.23;;;-9.40;99.90;;;;;;5004372;28;20173;-58
2023/12/04 03:17:54;;;;;;;32.00;13.00;;;-9.30;99.90;;;;;;5000871;28;20179;-58
2023/12/04 03:20:20;;;;;;;31.23;13.00;;;-9.30;99.90;;;;;;5004685;28;20229;-59
2023/12/04 03:22:46;;;;;;;30.87;12.40;;;-9.30;99.90;;;;;;4997447;28;20197;-59
2023/12/04 03:25:11;;;;;;;28.23;11.70;;;-9.30;99.90;;;;;;5007249;28;20202;-59
2023/12/04 03:27:37;;;;;;;25.93;12.13;;;-9.30;99.90;;;;;;5004561;28;20177;-59
2023/12/04 03:30:03;;;;;;;28.13;13.37;;;-9.30;99.90;;;;;;4997967;28;20207;-58
2023/12/04 03:32:28;;;;;;;28.40;13.20;;;-9.30;99.90;;;;;;5007500;28;20231;-59
2023/12/04 03:34:54;;;;;;;31.70;12.90;;;-9.30;99.90;;;;;;5008155;28;20531;-58
2023/12/04 03:37:19;;;;;;;34.70;13.40;;;-9.20;99.90;;;;;;5008869;28;20729;-58
2023/12/04 03:39:45;;;;;;;32.37;14.70;;;-9.30;99.90;;;;;;5002875;28;20268;-59
2023/12/04 03:42:11;;;;;;;32.50;14.60;;;-9.20;99.90;;;;;;5005189;28;20189;-59
2023/12/04 03:44:36;;;;;;;42.10;14.70;;;-9.30;99.90;;;;;;5008154;28;20196;-59
2023/12/04 03:47:02;;;;;;;31.23;13.27;;;-9.30;99.90;;;;;;5007141;28;20203;-59
2023/12/04 03:49:27;;;;;;;31.23;14.10;;;-9.30;99.90;;;;;;5013325;28;20242;-58
2023/12/04 03:51:53;;;;;;;27.90;13.13;;;-9.30;99.90;;;;;;5009703;28;20182;-58
2023/12/04 03:54:18;;;;;;;26.53;11.80;;;-9.30;99.90;;;;;;5007856;28;20193;-58
2023/12/04 03:56:44;;;;;;;24.50;11.50;;;-9.20;99.90;;;;;;5002608;28;20671;-58
2023/12/04 03:59:10;;;;;;;25.77;11.40;;;-9.20;99.90;;;;;;5008645;28;20256;-59
2023/12/04 04:01:36;;;;;;;28.63;12.03;;;-9.20;99.90;;;;;;5009678;28;20465;-59
2023/12/04 04:04:02;;;;;;;31.87;12.53;;;-9.20;99.90;;;;;;5008124;28;20435;-58
2023/12/04 04:06:27;;;;;;;24.90;11.43;;;-9.10;99.90;;;;;;5008361;28;20275;-58
2023/12/04 04:08:53;;;;;;;31.33;13.20;;;-9.10;99.90;;;;;;5002523;28;20285;-59
2023/12/04 04:11:18;;;;;;;32.10;11.60;;;-9.10;99.90;;;;;;5008734;28;20167;-59
2023/12/04 04:13:44;;;;;;;24.87;11.10;;;-9.00;99.90;;;;;;5007728;28;20207;-58
2023/12/04 04:16:15;;;;;;;23.83;10.63;;;-9.00;99.90;;;;;;5004194;28;20169;-59
2023/12/04 04:18:41;;;;;;;24.42;11.27;;;-9.00;99.90;;;;;;5002214;28;20176;-59
2023/12/04 04:21:07;;;;;;;28.30;11.57;;;-8.90;99.90;;;;;;4999849;28;20200;-59
2023/12/04 04:23:33;;;;;;;31.70;13.20;;;-8.90;99.90;;;;;;5003814;28;20201;-58
2023/12/04 04:25:58;;;;;;;25.03;12.37;;;-8.90;99.90;;;;;;5007349;28;20180;-59
2023/12/04 04:28:24;;;;;;;29.70;11.60;;;-8.90;99.90;;;;;;5007024;28;20201;-58
2023/12/04 04:30:49;;;;;;;29.37;12.87;;;-9.00;99.90;;;;;;5011595;28;20560;-58
2023/12/04 04:33:17;;;;;;;26.40;12.13;;;-9.00;99.90;;;;;;5007233;28;20212;-58
2023/12/04 04:35:42;;;;;;;22.90;11.18;;;-9.00;99.90;;;;;;5010381;28;20234;-59
2023/12/04 04:38:09;;;;;;;28.37;12.00;;;-9.00;99.90;;;;;;5012134;28;20650;-58
2023/12/04 04:40:34;;;;;;;29.02;12.07;;;-9.00;99.90;;;;;;5007779;28;20185;-58
2023/12/04 04:43:00;;;;;;;27.97;12.40;;;-9.00;99.90;;;;;;5010887;28;20173;-59
2023/12/04 04:45:26;;;;;;;37.67;12.30;;;-9.00;99.90;;;;;;5015217;28;20271;-58
2023/12/04 04:47:51;;;;;;;30.77;11.37;;;-9.00;99.90;;;;;;5011133;28;20183;-59
2023/12/04 04:50:17;;;;;;;34.73;11.53;;;-9.00;99.90;;;;;;5018904;28;20185;-58
2023/12/04 04:52:43;;;;;;;24.80;11.60;;;-9.00;99.90;;;;;;5006090;28;20188;-59
2023/12/04 04:55:08;;;;;;;34.53;11.90;;;-9.00;99.90;;;;;;4995752;28;20631;-59
2023/12/04 04:57:34;;;;;;;26.33;12.73;;;-8.90;99.90;;;;;;5002964;28;20287;-57
2023/12/04 04:59:59;;;;;;;24.07;11.27;;;-8.90;99.90;;;;;;5000794;28;20176;-55
2023/12/04 05:02:25;;;;;;;27.67;12.40;;;-8.90;99.90;;;;;;5004013;28;20181;-56
2023/12/04 05:04:50;;;;;;;27.07;12.47;;;-8.80;99.90;;;;;;4998433;28;21185;-62
2023/12/04 05:07:16;;;;;;;27.50;12.33;;;-8.80;99.90;;;;;;5004759;28;20209;-58
2023/12/04 05:09:42;;;;;;;25.00;11.77;;;-8.80;99.90;;;;;;5012882;28;20210;-59
2023/12/04 05:12:07;;;;;;;27.90;12.27;;;-8.80;99.90;;;;;;5007627;28;20235;-60
2023/12/04 05:14:33;;;;;;;25.67;11.80;;;-8.70;99.90;;;;;;5007292;28;20254;-59
2023/12/04 05:16:59;;;;;;;28.23;11.40;;;-8.70;99.90;;;;;;5009064;28;20177;-58
2023/12/04 05:19:24;;;;;;;31.90;12.30;;;-8.70;99.90;;;;;;5005349;28;20227;-59
2023/12/04 05:21:50;;;;;;;33.10;12.13;;;-8.60;99.90;;;;;;4997530;28;20176;-59
2023/12/04 05:24:16;;;;;;;24.57;10.50;;;-8.60;99.90;;;;;;5008049;28;20276;-61
2023/12/04 05:26:41;;;;;;;36.20;13.40;;;-8.60;99.90;;;;;;5003175;28;20207;-59
2023/12/04 05:29:07;;;;;;;21.33;11.13;;;-8.50;99.90;;;;;;5001649;28;20224;-60
2023/12/04 05:31:32;;;;;;;31.43;12.80;;;-8.50;99.90;;;;;;5005231;28;20191;-59
2023/12/04 05:33:58;;;;;;;39.90;12.30;;;-8.50;99.90;;;;;;5011741;28;20202;-59
2023/12/04 05:36:23;;;;;;;27.80;12.97;;;-8.50;99.90;;;;;;5006433;28;20180;-59
2023/12/04 05:38:49;;;;;;;32.00;14.00;;;-8.50;99.90;;;;;;4998522;28;20176;-58
2023/12/04 05:41:15;;;;;;;32.67;12.80;;;-8.50;99.90;;;;;;4999641;28;20185;-58
2023/12/04 05:43:40;;;;;;;29.63;13.27;;;-8.50;99.90;;;;;;5003129;28;20255;-58
2023/12/04 05:46:06;;;;;;;28.50;13.37;;;-8.50;99.90;;;;;;5011405;28;20176;-58
2023/12/04 05:48:31;;;;;;;35.37;13.87;;;-8.50;99.90;;;;;;5007308;28;20208;-57
2023/12/04 05:50:57;;;;;;;29.23;13.60;;;-8.50;99.90;;;;;;5009455;28;20180;-58
2023/12/04 05:53:22;;;;;;;30.33;12.43;;;-8.50;99.90;;;;;;5015371;28;20195;-59
2023/12/04 05:55:48;;;;;;;27.37;12.57;;;-8.50;99.90;;;;;;5014102;28;20788;-58
2023/12/04 05:58:14;;;;;;;31.23;13.60;;;-8.40;99.90;;;;;;5008040;28;20263;-59
2023/12/04 06:00:40;;;;;;;35.80;14.02;;;-8.40;99.90;;;;;;5015043;28;20172;-59
2023/12/04 06:03:06;;;;;;;34.55;13.63;;;-8.40;99.90;;;;;;5006013;28;20674;-58
2023/12/04 06:05:31;;;;;;;28.53;13.57;;;-8.40;99.90;;;;;;5005223;28;20177;-58
2023/12/04 06:07:57;;;;;;;31.50;13.30;;;-8.40;99.90;;;;;;5010655;28;20188;-60
2023/12/04 06:10:23;;;;;;;31.92;13.18;;;-8.40;99.90;;;;;;4999743;28;20223;-59
2023/12/04 06:12:49;;;;;;;33.83;13.00;;;-8.50;99.90;;;;;;5002966;28;20176;-58
2023/12/04 06:15:14;;;;;;;30.10;13.03;;;-8.40;99.90;;;;;;5001857;28;20636;-59
2023/12/04 06:17:40;;;;;;;32.30;14.20;;;-8.40;99.90;;;;;;5004618;28;20177;-59
2023/12/04 06:20:08;;;;;;;26.63;12.80;;;-8.40;99.90;;;;;;5003995;28;20181;-58
2023/12/04 06:22:34;;;;;;;28.80;12.25;;;-8.40;99.90;;;;;;5008172;28;20191;-58
2023/12/04 06:24:59;;;;;;;38.23;14.47;;;-8.40;99.90;;;;;;5009546;28;20197;-59
2023/12/04 06:27:25;;;;;;;34.90;15.00;;;-8.40;99.90;;;;;;5004289;28;20847;-59
2023/12/04 06:29:51;;;;;;;32.03;15.20;;;-8.30;99.90;;;;;;5007517;28;20498;-59
2023/12/04 06:32:17;;;;;;;32.73;13.87;;;-8.30;99.90;;;;;;5000227;28;20260;-58
2023/12/04 06:34:43;;;;;;;30.40;13.40;;;-8.30;99.90;;;;;;5006747;28;20473;-59
2023/12/04 06:37:13;;;;;;;28.67;13.83;;;-8.30;99.90;;;;;;5005220;28;20954;-59
2023/12/04 06:39:39;;;;;;;28.05;13.70;;;-8.20;99.90;;;;;;5007558;28;20416;-60
2023/12/04 06:42:09;;;;;;;30.75;14.13;;;-8.20;99.90;;;;;;5002301;28;20567;-58
2023/12/04 06:44:35;;;;;;;28.65;12.90;;;-8.20;99.90;;;;;;4996125;28;20196;-58
2023/12/04 06:47:02;;;;;;;34.55;13.60;;;-8.20;99.90;;;;;;4999081;28;20189;-58
2023/12/04 06:49:32;;;;;;;32.58;14.38;;;-8.20;99.90;;;;;;5002145;28;20280;-56
2023/12/04 06:51:59;;;;;;;28.77;13.73;;;-8.10;99.90;;;;;;5004214;28;20173;-60
2023/12/04 06:54:24;;;;;;;32.78;13.38;;;-8.10;99.90;;;;;;5006945;28;20193;-59
2023/12/04 06:56:50;;;;;;;34.20;14.53;;;-8.10;99.90;;;;;;5005027;28;20185;-58
2023/12/04 06:59:17;;;;;;;35.30;14.23;;;-8.00;99.90;;;;;;5006261;28;20211;-58
2023/12/04 07:01:43;;;;;;;33.80;14.20;;;-8.00;99.90;;;;;;4995657;28;20181;-58
2023/12/04 07:04:11;;;;;;;36.03;13.53;;;-7.90;99.90;;;;;;5004093;28;20299;-59
2023/12/04 07:06:38;;;;;;;30.98;13.95;;;-7.90;99.90;;;;;;5003862;28;20852;-59
2023/12/04 07:09:04;;;;;;;29.35;13.90;;;-7.90;99.90;;;;;;5004534;28;20729;-58
2023/12/04 07:11:30;;;;;;;30.03;13.50;;;-7.90;99.90;;;;;;5004781;28;20188;-58
2023/12/04 07:13:56;;;;;;;25.53;13.57;;;-7.80;99.90;;;;;;5006418;28;20442;-58
2023/12/04 07:16:21;;;;;;;33.20;13.77;;;-7.80;99.90;;;;;;5005617;28;20527;-58
2023/12/04 07:18:47;;;;;;;29.07;14.13;;;-7.80;99.90;;;;;;5008413;28;20217;-57
2023/12/04 07:21:12;;;;;;;30.77;14.07;;;-7.80;99.90;;;;;;5002255;28;20190;-57
2023/12/04 07:23:38;;;;;;;30.10;15.00;;;-7.80;99.90;;;;;;4999575;28;20203;-57
2023/12/04 07:26:04;;;;;;;28.40;12.83;;;-7.70;99.90;;;;;;5006922;28;20196;-57
2023/12/04 07:28:30;;;;;;;28.58;11.40;;;-7.70;99.90;;;;;;5007728;28;20209;-58
2023/12/04 07:30:55;;;;;;;27.73;12.03;;;-7.60;99.90;;;;;;5003501;28;20180;-58
2023/12/04 07:33:21;;;;;;;24.43;12.13;;;-7.60;99.90;;;;;;5004621;28;20650;-56
2023/12/04 07:35:47;;;;;;;25.77;12.00;;;-7.60;99.90;;;;;;5006214;28;20678;-55
2023/12/04 07:38:12;;;;;;;26.83;11.03;;;-7.50;99.90;;;;;;4999943;28;20182;-56
2023/12/04 07:40:38;;;;;;;27.27;12.67;;;-7.50;99.90;;;;;;5012826;28;20165;-56
2023/12/04 07:43:03;;;;;;;29.37;13.10;;;-7.50;99.90;;;;;;5009604;28;20572;-58
2023/12/04 07:45:29;;;;;;;27.67;12.27;;;-7.40;99.90;;;;;;5005636;28;20173;-57
2023/12/04 07:47:55;;;;;;;24.10;11.70;;;-7.40;99.90;;;;;;5001851;28;20254;-59
2023/12/04 07:50:21;;;;;;;22.77;11.30;;;-7.30;99.90;;;;;;5008535;28;20838;-57
2023/12/04 07:52:47;;;;;;;25.40;10.87;;;-7.30;99.90;;;;;;5011643;28;20420;-57
2023/12/04 07:55:12;;;;;;;29.30;12.80;;;-7.30;99.90;;;;;;5005686;28;20462;-57
2023/12/04 07:57:38;;;;;;;21.43;11.10;;;-7.30;99.90;;;;;;5008536;28;20212;-57
2023/12/04 08:00:04;;;;;;;24.57;11.10;;;-7.20;99.90;;;;;;5003739;28;20272;-58
2023/12/04 08:02:30;;;;;;;29.20;12.25;;;-7.20;99.90;;;;;;5001915;28;20185;-58
2023/12/04 08:04:56;;;;;;;23.48;11.13;;;-7.10;99.90;;;;;;5003188;28;20205;-58
2023/12/04 08:07:21;;;;;;;28.20;11.77;;;-7.20;99.90;;;;;;5006481;28;20184;-57
2023/12/04 08:09:47;;;;;;;25.20;12.57;;;-7.10;99.90;;;;;;5004491;28;20727;-57
2023/12/04 08:12:13;;;;;;;24.57;10.57;;;-7.10;99.90;;;;;;4998944;28;20182;-58
2023/12/04 08:14:38;;;;;;;21.37;10.77;;;-7.20;99.90;;;;;;5000715;28;20580;-57
2023/12/04 08:17:04;;;;;;;25.53;10.80;;;-7.20;99.90;;;;;;5001710;28;20173;-57
2023/12/04 08:19:29;;;;;;;22.93;10.30;;;-7.20;99.90;;;;;;5000925;28;20272;-58
2023/12/04 08:21:55;;;;;;;27.70;11.87;;;-7.10;99.90;;;;;;5000749;28;20719;-57
2023/12/04 08:24:21;;;;;;;19.40;10.43;;;-7.10;99.90;;;;;;5003456;28;20204;-60
2023/12/04 08:26:47;;;;;;;23.37;12.07;;;-7.00;99.90;;;;;;5000243;28;20178;-57
2023/12/04 08:29:12;;;;;;;24.17;11.07;;;-7.00;99.90;;;;;;5006007;28;20479;-57
2023/12/04 08:31:38;;;;;;;26.60;12.20;;;-7.00;99.90;;;;;;5004021;28;20196;-57
2023/12/04 08:34:04;;;;;;;27.70;12.93;;;-6.90;99.90;;;;;;5003867;28;20966;-58
2023/12/04 08:36:29;;;;;;;32.93;12.63;;;-6.90;99.90;;;;;;5002351;28;20259;-59
2023/12/04 08:38:55;;;;;;;30.30;12.50;;;-6.80;99.90;;;;;;5006304;28;20180;-58
2023/12/04 08:41:21;;;;;;;27.07;13.40;;;-6.80;99.90;;;;;;5003584;28;20664;-57
2023/12/04 08:43:46;;;;;;;31.17;12.23;;;-6.70;99.90;;;;;;5002464;28;20197;-57
2023/12/04 08:46:15;;;;;;;31.67;12.83;;;-6.70;99.90;;;;;;5007382;28;20178;-58
2023/12/04 08:48:41;;;;;;;25.48;13.13;;;-6.60;99.90;;;;;;5004295;28;20197;-58
2023/12/04 08:51:08;;;;;;;27.20;12.13;;;-6.60;99.90;;;;;;4995798;28;20681;-58
2023/12/04 08:53:34;;;;;;;22.20;12.05;;;-6.60;99.90;;;;;;5001934;28;20279;-58
2023/12/04 08:56:00;;;;;;;26.60;12.30;;;-6.50;99.90;;;;;;5001470;28;20239;-59
2023/12/04 08:58:25;;;;;;;24.67;10.80;;;-6.50;99.90;;;;;;5005163;28;20216;-58
2023/12/04 09:00:51;;;;;;;19.03;10.30;;;-6.50;99.90;;;;;;5002078;28;21001;-58
2023/12/04 09:03:17;;;;;;;20.53;10.50;;;-6.40;99.90;;;;;;4999332;28;20332;-58
2023/12/04 09:05:42;;;;;;;22.40;10.43;;;-6.40;99.90;;;;;;5002492;28;20201;-57
2023/12/04 09:08:08;;;;;;;25.67;11.50;;;-6.30;99.90;;;;;;5005507;28;20189;-58
2023/12/04 09:10:34;;;;;;;28.03;11.90;;;-6.30;99.90;;;;;;5005673;28;20800;-58
2023/12/04 09:13:00;;;;;;;23.00;11.50;;;-6.30;99.90;;;;;;5005696;28;20180;-58
2023/12/04 09:15:25;;;;;;;25.17;11.83;;;-6.20;99.90;;;;;;5007934;28;20178;-58
2023/12/04 09:17:51;;;;;;;27.10;12.37;;;-6.10;99.90;;;;;;5006916;28;20428;-57
2023/12/04 09:20:17;;;;;;;23.40;11.57;;;-6.10;99.90;;;;;;5006068;28;20173;-58
2023/12/04 09:22:42;;;;;;;25.73;12.23;;;-6.00;99.90;;;;;;5004153;28;20197;-58
2023/12/04 09:25:08;;;;;;;28.50;13.73;;;-6.00;99.90;;;;;;5006505;28;20573;-58
2023/12/04 09:27:34;;;;;;;34.70;13.90;;;-6.00;99.90;;;;;;5007083;28;20181;-58
2023/12/04 09:30:00;;;;;;;28.77;14.37;;;-5.90;99.90;;;;;;5011522;28;20224;-57
2023/12/04 09:32:26;;;;;;;31.43;13.87;;;-5.90;99.90;;;;;;5005210;28;20440;-57
2023/12/04 09:34:51;;;;;;;28.20;12.83;;;-5.80;99.90;;;;;;5007714;28;21220;-57
2023/12/04 09:37:17;;;;;;;29.13;13.70;;;-5.80;99.90;;;;;;5004050;28;20267;-57
2023/12/04 09:39:43;;;;;;;30.60;12.80;;;-5.70;99.90;;;;;;5010201;28;20191;-60
2023/12/04 09:42:10;;;;;;;25.60;11.73;;;-5.70;99.90;;;;;;5007349;28;20185;-57
2023/12/04 09:44:37;;;;;;;28.60;13.10;;;-5.70;99.90;;;;;;5009025;28;20202;-57
2023/12/04 09:47:04;;;;;;;26.20;13.10;;;-5.60;99.90;;;;;;5008548;28;20467;-60
2023/12/04 09:49:31;;;;;;;27.17;13.33;;;-5.60;99.90;;;;;;5006154;28;20466;-57
2023/12/04 09:52:02;;;;;;;28.30;13.20;;;-5.60;99.90;;;;;;5006159;28;20440;-58
2023/12/04 09:54:29;;;;;;;27.30;13.00;;;-5.50;99.90;;;;;;5011000;28;20653;-56
2023/12/04 09:56:55;;;;;;;29.67;13.57;;;-5.40;99.90;;;;;;5007765;28;20479;-53
2023/12/04 09:59:25;;;;;;;26.80;12.63;;;-5.40;99.90;;;;;;5007263;28;20819;-55
2023/12/04 10:01:52;;;;;;;24.00;12.20;;;-5.30;99.90;;;;;;5007542;28;21216;-56
2023/12/04 10:04:17;;;;;;;28.00;13.00;;;-5.30;99.90;;;;;;5006488;28;20447;-57
2023/12/04 10:06:45;;;;;;;28.60;13.17;;;-5.20;99.90;;;;;;5006100;28;20418;-57
2023/12/04 10:09:13;;;;;;;26.33;12.43;;;-5.10;99.90;;;;;;5003339;28;20201;-57
2023/12/04 10:11:42;;;;;;;27.00;12.50;;;-5.00;99.90;;;;;;5002974;28;20482;-59
2023/12/04 10:14:18;;;;;;;23.60;11.50;;;-4.90;99.90;;;;;;5006331;28;20434;-58
2023/12/04 10:16:45;;;;;;;27.50;13.50;;;-4.80;99.90;;;;;;5001993;28;20966;-59
2023/12/04 10:19:26;;;;;;;32.60;13.60;;;-4.80;99.90;;;;;;5005834;28;20417;-58
2023/12/04 10:21:54;;;;;;;26.57;13.53;;;-4.70;99.90;;;;;;5004658;28;20387;-59
2023/12/04 10:24:35;;;;;;;24.60;12.40;;;-4.60;99.90;;;;;;5000832;28;20453;-59
2023/12/04 10:27:05;;;;;;;29.40;13.83;;;-4.60;99.90;;;;;;5007286;28;20419;-58
2023/12/04 10:29:47;;;;;;;29.30;14.80;;;-4.60;99.90;;;;;;5002474;28;20996;-59
2023/12/04 10:32:13;;;;;;;26.27;12.47;;;-4.70;99.90;;;;;;5014684;23;20497;-60
2023/12/04 10:34:42;;;;;;;25.87;14.67;;;-4.70;99.90;;;;;;4987612;28;21112;-59
2023/12/04 10:37:09;;;;;;;28.83;14.10;;;-4.60;99.90;;;;;;4983996;28;21877;-60
2023/12/04 10:39:51;;;;;;;23.40;12.53;;;-4.60;99.90;;;;;;4992601;28;20506;-59
2023/12/04 10:42:28;;;;;;;30.60;12.53;;;-4.60;99.90;;;;;;4983571;28;20453;-60
2023/12/04 10:44:58;;;;;;;29.90;12.70;;;-4.60;99.90;;;;;;4996835;28;20436;-59
2023/12/04 10:47:24;;;;;;;23.30;11.70;;;-4.50;99.90;;;;;;4987255;28;20417;-59
2023/12/04 10:49:52;;;;;;;24.90;11.90;;;-4.40;99.90;;;;;;4984421;28;20479;-59
2023/12/04 10:52:19;;;;;;;25.63;11.20;;;-4.30;99.90;;;;;;4987548;28;20974;-58
2023/12/04 10:54:48;;;;;;;25.47;11.93;;;-4.20;99.90;;;;;;4987311;28;20507;-59
2023/12/04 10:57:28;;;;;;;20.00;10.93;;;-3.90;99.90;;;;;;4983457;28;20436;-59
2023/12/04 11:00:02;;;;;;;23.00;12.27;;;-3.70;99.90;;;;;;4985331;28;20431;-59
2023/12/04 11:02:31;;;;;;;25.53;11.70;;;-3.40;99.90;;;;;;4984937;28;20537;-59
2023/12/04 11:05:05;;;;;;;23.73;11.50;;;-3.20;99.90;;;;;;4983059;28;21244;-59
2023/12/04 11:07:33;;;;;;;19.67;10.73;;;-3.10;99.90;;;;;;4985000;28;20433;-59
2023/12/04 11:10:00;;;;;;;20.53;11.07;;;-3.10;99.90;;;;;;4986157;28;20490;-60
2023/12/04 11:12:31;;;;;;;19.87;10.83;;;-3.10;99.90;;;;;;4986923;28;20936;-59
2023/12/04 11:15:00;;;;;;;20.47;11.17;;;-3.00;99.90;;;;;;4987552;28;20420;-60
2023/12/04 11:17:32;;;;;;;23.50;11.53;;;-3.00;99.90;;;;;;4987357;28;20456;-59
2023/12/04 11:20:18;;;;;;;23.00;11.77;;;-2.90;99.90;;;;;;4988575;28;20493;-60
2023/12/04 11:22:47;;;;;;;26.97;13.80;;;-2.80;99.90;;;;;;4986011;28;20435;-59
2023/12/04 11:25:14;;;;;;;26.57;13.10;;;-2.70;99.90;;;;;;4983356;28;20439;-59
2023/12/04 11:27:41;;;;;;;27.07;14.30;;;-2.70;99.90;;;;;;4985169;28;20484;-54
2023/12/04 11:30:08;;;;;;;26.40;14.43;;;-2.60;99.90;;;;;;4985325;28;20450;-55
2023/12/04 11:32:44;;;;;;;25.17;11.70;;;-2.50;99.90;;;;;;4985879;28;21166;-54
2023/12/04 11:35:14;;;;;;;22.30;11.90;;;-2.40;99.90;;;;;;4979220;28;20437;-51
2023/12/04 11:37:40;;;;;;;24.73;11.60;;;-2.30;99.90;;;;;;4989899;28;20424;-53
2023/12/04 11:40:07;;;;;;;23.40;12.17;;;-2.30;99.90;;;;;;4988407;28;20555;-50
2023/12/04 11:42:33;;;;;;;23.27;12.63;;;-2.30;99.90;;;;;;4986981;28;20426;-56
2023/12/04 11:44:59;;;;;;;22.00;12.33;;;-2.30;99.90;;;;;;4980295;28;20448;-60
2023/12/04 11:47:24;;;;;;;24.37;13.70;;;-2.30;99.90;;;;;;4983706;28;20441;-58
2023/12/04 11:49:50;;;;;;;23.10;11.90;;;-2.30;99.90;;;;;;4984666;28;20709;-58
2023/12/04 11:52:16;;;;;;;22.97;12.23;;;-2.40;99.90;;;;;;4993840;28;20203;-59
2023/12/04 11:55:06;;;;;;;25.20;13.37;;;-2.30;99.90;;;;;;4985799;28;20190;-59
2023/12/04 11:57:39;;;;;;;24.27;12.40;;;-2.30;99.90;;;;;;4988970;28;20574;-57
2023/12/04 12:00:24;;;;;;;20.17;11.07;;;-2.30;99.90;;;;;;4982055;28;20443;-57
2023/12/04 12:02:53;;;;;;;22.87;11.50;;;-2.30;99.90;;;;;;4978798;28;20451;-56
2023/12/04 12:05:22;;;;;;;20.97;10.83;;;-2.30;99.90;;;;;;4985964;28;21021;-57
2023/12/04 12:07:49;;;;;;;21.63;12.20;;;-2.40;99.90;;;;;;4986451;28;20834;-57
2023/12/04 12:10:16;;;;;;;24.70;11.33;;;-2.40;99.90;;;;;;4987567;28;20465;-57
2023/12/04 12:12:44;;;;;;;23.03;11.47;;;-2.40;99.90;;;;;;4985479;28;20454;-57
2023/12/04 12:15:11;;;;;;;21.57;11.83;;;-2.40;99.90;;;;;;4986300;28;20786;-57
2023/12/04 12:17:41;;;;;;;20.97;11.53;;;-2.40;99.90;;;;;;4989500;28;20410;-57
2023/12/04 12:20:12;;;;;;;26.73;12.20;;;-2.40;99.90;;;;;;4987070;28;20441;-57
2023/12/04 12:22:41;;;;;;;20.97;12.00;;;-2.30;99.90;;;;;;4984350;28;20995;-57
2023/12/04 12:25:13;;;;;;;26.70;13.23;;;-2.30;99.90;;;;;;4986748;28;20448;-57